Terminal Aerodrome Forecast
Issued by NWS Mt. Holly, NJ

Current Version | Previous Version | Text Only | Print | Product List | Glossary On
Versions: 1 2 3 4 5 6 7 8 9 10 11 12 13 14 15 16 17 18 19 20 21 22 23 24 25 26 27 28
000
FTUS41 KPHI 290903 AAA
TAFPHL
TAF AMD
KPHL 290903Z 2909/3012 02010KT 5SM -RA BR OVC009
      TEMPO 2909/2912 2SM +RA OVC005
     FM291300 01010KT 5SM -SHRA BR OVC012
     FM291500 01010G18KT P6SM OVC022
     FM291800 01010G18KT P6SM BKN035
     FM292200 VRB03KT P6SM SCT045=

USA.gov is the U.S. government's official web portal to all federal, state and local government web resources and services.